<?xml version='1.0' encoding='UTF-8'?><gpx version="1.1" creator="JPX - https://github.com/jenetics/jpx" xmlns="http://www.topografix.com/GPX/1/1"><trk><trkseg><trkpt lat="44.843769460454325" lon="8.367840636301745"><ele>198.0</ele><time>2026-04-06T16:10:54Z</time></trkpt><trkpt lat="44.843802873702465" lon="8.36791780958157"><ele>198.0</ele><time>2026-04-06T16:10:58Z</time></trkpt><trkpt lat="44.843862330329785" lon="8.367987755093692"><ele>198.0</ele><time>2026-04-06T16:11:03Z</time></trkpt><trkpt lat="44.84392453598173" lon="8.36802150729267"><ele>198.0</ele><time>2026-04-06T16:11:07Z</time></trkpt><trkpt lat="44.84398924722551" lon="8.36805129104571"><ele>198.0</ele><time>2026-04-06T16:11:12Z</time></trkpt><trkpt lat="44.84403721655749" lon="8.368129295473889"><ele>198.0</ele><time>2026-04-06T16:11:22Z</time></trkpt><trkpt lat="44.84409720210553" lon="8.368178512302032"><ele>198.0</ele><time>2026-04-06T16:11:29Z</time></trkpt><trkpt lat="44.84415150494551" lon="8.368235630140154"><ele>198.42857142857144</ele><time>2026-04-06T16:11:35Z</time></trkpt><trkpt lat="44.84421106042903" lon="8.368278922863619"><ele>198.85714285714283</ele><time>2026-04-06T16:11:41Z</time></trkpt><trkpt lat="44.84426418016479" lon="8.36834909154141"><ele>199.28571428571428</ele><time>2026-04-06T16:11:49Z</time></trkpt><trkpt lat="44.84432088674173" lon="8.368394761494208"><ele>199.71428571428572</ele><time>2026-04-06T16:11:55Z</time></trkpt><trkpt lat="44.84437121635719" lon="8.368462425685236"><ele>200.14285714285717</ele><time>2026-04-06T16:12:01Z</time></trkpt><trkpt lat="44.844418406932185" lon="8.368524399109397"><ele>200.57142857142856</ele><time>2026-04-06T16:12:08Z</time></trkpt><trkpt lat="44.84447201067469" lon="8.36858829248038"><ele>201.0</ele><time>2026-04-06T16:12:15Z</time></trkpt><trkpt lat="44.84452237332575" lon="8.368653764137738"><ele>201.14285714285714</ele><time>2026-04-06T16:12:22Z</time></trkpt><trkpt lat="44.84457566642048" lon="8.368706417822091"><ele>201.2857142857143</ele><time>2026-04-06T16:12:30Z</time></trkpt><trkpt lat="44.84463242833352" lon="8.36877436954007"><ele>201.42857142857144</ele><time>2026-04-06T16:12:37Z</time></trkpt><trkpt lat="44.84467732928907" lon="8.368841208071762"><ele>201.57142857142856</ele><time>2026-04-06T16:12:42Z</time></trkpt><trkpt lat="44.84473845143278" lon="8.368895459023614"><ele>201.71428571428572</ele><time>2026-04-06T16:12:49.999Z</time></trkpt><trkpt lat="44.84479437112573" lon="8.368968994310032"><ele>201.85714285714286</ele><time>2026-04-06T16:12:56.999Z</time></trkpt><trkpt lat="44.844861726498785" lon="8.369018354257621"><ele>202.0</ele><time>2026-04-06T16:13:03.999Z</time></trkpt><trkpt lat="44.844910540216624" lon="8.36908868086947"><ele>202.0</ele><time>2026-04-06T16:13:09.999Z</time></trkpt><trkpt lat="44.84496964586745" lon="8.369137323827697"><ele>202.0</ele><time>2026-04-06T16:13:17Z</time></trkpt><trkpt lat="44.84502984656522" lon="8.369206963715952"><ele>202.0</ele><time>2026-04-06T16:13:25Z</time></trkpt><trkpt lat="44.845080625721444" lon="8.369274874645532"><ele>202.0</ele><time>2026-04-06T16:13:32Z</time></trkpt><trkpt lat="44.84513142593605" lon="8.369330947093099"><ele>202.0</ele><time>2026-04-06T16:13:38Z</time></trkpt><trkpt lat="44.84518449187944" lon="8.369382259213223"><ele>202.0</ele><time>2026-04-06T16:13:43Z</time></trkpt><trkpt lat="44.84523354291147" lon="8.36944781400051"><ele>202.0</ele><time>2026-04-06T16:13:49Z</time></trkpt><trkpt lat="44.8452843846085" lon="8.369533693536457"><ele>202.28571428571428</ele><time>2026-04-06T16:13:56Z</time></trkpt><trkpt lat="44.845330380499654" lon="8.369614856928377"><ele>202.57142857142856</ele><time>2026-04-06T16:14:04Z</time></trkpt><trkpt lat="44.845377408055235" lon="8.369679775185187"><ele>202.85714285714286</ele><time>2026-04-06T16:14:10Z</time></trkpt><trkpt lat="44.845410998261094" lon="8.369765475511889"><ele>203.14285714285714</ele><time>2026-04-06T16:14:17Z</time></trkpt><trkpt lat="44.845441298162406" lon="8.369847434393877"><ele>203.42857142857144</ele><time>2026-04-06T16:14:24Z</time></trkpt><trkpt lat="44.84548140567636" lon="8.369924598404788"><ele>203.71428571428572</ele><time>2026-04-06T16:14:31Z</time></trkpt><trkpt lat="44.845525764796946" lon="8.369997027558696"><ele>204.0</ele><time>2026-04-06T16:14:37Z</time></trkpt><trkpt lat="44.84555518762985" lon="8.370090651029319"><ele>204.0</ele><time>2026-04-06T16:14:44Z</time></trkpt><trkpt lat="44.84557714145214" lon="8.370187646673898"><ele>204.0</ele><time>2026-04-06T16:14:50Z</time></trkpt><trkpt lat="44.84557597225317" lon="8.370287663822785"><ele>204.0</ele><time>2026-04-06T16:14:56Z</time></trkpt><trkpt lat="44.84558409986112" lon="8.370376287345724"><ele>204.0</ele><time>2026-04-06T16:15:02Z</time></trkpt><trkpt lat="44.84558418321591" lon="8.37047572613244"><ele>204.0</ele><time>2026-04-06T16:15:11Z</time></trkpt><trkpt lat="44.84555929591656" lon="8.370572508686278"><ele>204.0</ele><time>2026-04-06T16:15:19Z</time></trkpt><trkpt lat="44.845569211711485" lon="8.370665932260255"><ele>204.0</ele><time>2026-04-06T16:15:25Z</time></trkpt><trkpt lat="44.845546341943816" lon="8.370764945357905"><ele>204.0</ele><time>2026-04-06T16:15:32Z</time></trkpt><trkpt lat="44.8455399835035" lon="8.37086226130791"><ele>204.0</ele><time>2026-04-06T16:15:39Z</time></trkpt><trkpt lat="44.84553027215238" lon="8.370956192672743"><ele>204.0</ele><time>2026-04-06T16:15:47Z</time></trkpt><trkpt lat="44.84552486763047" lon="8.371058699555254"><ele>204.0</ele><time>2026-04-06T16:15:57Z</time></trkpt><trkpt lat="44.84552362049479" lon="8.37115388995971"><ele>204.0</ele><time>2026-04-06T16:16:05Z</time></trkpt><trkpt lat="44.845526316122964" lon="8.37125120764132"><ele>204.0</ele><time>2026-04-06T16:16:13Z</time></trkpt><trkpt lat="44.84552030480653" lon="8.371348857782637"><ele>204.0</ele><time>2026-04-06T16:16:20Z</time></trkpt><trkpt lat="44.845516515240156" lon="8.3714506005915"><ele>203.42857142857144</ele><time>2026-04-06T16:16:28Z</time></trkpt><trkpt lat="44.845531557891434" lon="8.371542931721006"><ele>202.85714285714286</ele><time>2026-04-06T16:16:34Z</time></trkpt><trkpt lat="44.845540148604826" lon="8.371635149457274"><ele>202.28571428571428</ele><time>2026-04-06T16:16:40Z</time></trkpt><trkpt lat="44.845553631770464" lon="8.3717312952197"><ele>201.71428571428572</ele><time>2026-04-06T16:16:46Z</time></trkpt><trkpt lat="44.8455692792984" lon="8.371829430784134"><ele>201.14285714285714</ele><time>2026-04-06T16:16:52Z</time></trkpt><trkpt lat="44.84558875625275" lon="8.371914088417812"><ele>200.57142857142858</ele><time>2026-04-06T16:16:58Z</time></trkpt><trkpt lat="44.84561216290017" lon="8.372001279909053"><ele>200.0</ele><time>2026-04-06T16:17:04Z</time></trkpt><trkpt lat="44.84562526073115" lon="8.372093022672704"><ele>200.00000000000003</ele><time>2026-04-06T16:17:10Z</time></trkpt><trkpt lat="44.84564620938102" lon="8.372182370475661"><ele>200.0</ele><time>2026-04-06T16:17:16Z</time></trkpt><trkpt lat="44.84566024870759" lon="8.3722779239824"><ele>200.0</ele><time>2026-04-06T16:17:22Z</time></trkpt><trkpt lat="44.84566380065254" lon="8.372371513447304"><ele>200.0</ele><time>2026-04-06T16:17:28Z</time></trkpt><trkpt lat="44.84566907468024" lon="8.372464300422761"><ele>200.0</ele><time>2026-04-06T16:17:34Z</time></trkpt><trkpt lat="44.8456805656853" lon="8.37255954636942"><ele>200.00000000000003</ele><time>2026-04-06T16:17:40Z</time></trkpt><trkpt lat="44.84569552817363" lon="8.372657003961491"><ele>200.0</ele><time>2026-04-06T16:17:46Z</time></trkpt><trkpt lat="44.8456930575353" lon="8.372772015250668"><ele>199.57142857142858</ele><time>2026-04-06T16:17:53Z</time></trkpt><trkpt lat="44.84570134573581" lon="8.372880955943556"><ele>199.14285714285714</ele><time>2026-04-06T16:17:58Z</time></trkpt><trkpt lat="44.84570362085573" lon="8.372984673743716"><ele>198.71428571428572</ele><time>2026-04-06T16:18:06Z</time></trkpt><trkpt lat="44.84569758556921" lon="8.373078493397585"><ele>198.28571428571428</ele><time>2026-04-06T16:18:13Z</time></trkpt><trkpt lat="44.8457106478555" lon="8.373166278309148"><ele>197.85714285714286</ele><time>2026-04-06T16:18:19Z</time></trkpt><trkpt lat="44.845734580561896" lon="8.373254896380088"><ele>197.42857142857144</ele><time>2026-04-06T16:18:25Z</time></trkpt><trkpt lat="44.84574662465307" lon="8.37335160136223"><ele>197.0</ele><time>2026-04-06T16:18:32Z</time></trkpt><trkpt lat="44.845754866738694" lon="8.373442778852977"><ele>197.0</ele><time>2026-04-06T16:18:40Z</time></trkpt><trkpt lat="44.84578379372927" lon="8.373539702038677"><ele>197.0</ele><time>2026-04-06T16:18:47Z</time></trkpt><trkpt lat="44.84581613727996" lon="8.373616450600256"><ele>197.0</ele><time>2026-04-06T16:18:52Z</time></trkpt><trkpt lat="44.845842237756415" lon="8.37370768683028"><ele>197.0</ele><time>2026-04-06T16:18:59Z</time></trkpt><trkpt lat="44.84588105367047" lon="8.373788693292912"><ele>197.0</ele><time>2026-04-06T16:19:07Z</time></trkpt><trkpt lat="44.84591797413612" lon="8.373878296915121"><ele>197.0</ele><time>2026-04-06T16:19:14Z</time></trkpt><trkpt lat="44.84595122651358" lon="8.37396892535855"><ele>197.0</ele><time>2026-04-06T16:19:21Z</time></trkpt><trkpt lat="44.84599077582969" lon="8.37404997565444"><ele>196.0</ele><time>2026-04-06T16:19:28Z</time></trkpt><trkpt lat="44.84603693791647" lon="8.374127888750765"><ele>195.0</ele><time>2026-04-06T16:19:35Z</time></trkpt><trkpt lat="44.84607335356883" lon="8.374204688651096"><ele>194.0</ele><time>2026-04-06T16:19:42Z</time></trkpt><trkpt lat="44.84613023454005" lon="8.37426726417495"><ele>193.0</ele><time>2026-04-06T16:19:49Z</time></trkpt><trkpt lat="44.846188316553466" lon="8.374321684848313"><ele>192.0</ele><time>2026-04-06T16:19:56Z</time></trkpt><trkpt lat="44.846243492145874" lon="8.374376563422738"><ele>191.0</ele><time>2026-04-06T16:20:02Z</time></trkpt><trkpt lat="44.84629812212712" lon="8.374440000063277"><ele>190.0</ele><time>2026-04-06T16:20:09Z</time></trkpt><trkpt lat="44.84635219816401" lon="8.374510529948894"><ele>190.0</ele><time>2026-04-06T16:20:15Z</time></trkpt><trkpt lat="44.84637796758144" lon="8.374596163985178"><ele>190.0</ele><time>2026-04-06T16:20:22Z</time></trkpt><trkpt lat="44.84639268709888" lon="8.374696323022983"><ele>190.0</ele><time>2026-04-06T16:20:28Z</time></trkpt><trkpt lat="44.84639986805603" lon="8.374802036756472"><ele>190.0</ele><time>2026-04-06T16:20:36Z</time></trkpt><trkpt lat="44.84639737298993" lon="8.374899370805794"><ele>190.0</ele><time>2026-04-06T16:20:43Z</time></trkpt><trkpt lat="44.84641653832789" lon="8.374991218917646"><ele>190.0</ele><time>2026-04-06T16:20:50Z</time></trkpt><trkpt lat="44.8464326863006" lon="8.375088525328545"><ele>190.0</ele><time>2026-04-06T16:20:56Z</time></trkpt><trkpt lat="44.84646414215576" lon="8.375186882553262"><ele>190.42857142857144</ele><time>2026-04-06T16:21:03Z</time></trkpt><trkpt lat="44.84649332520355" lon="8.37527709606253"><ele>190.85714285714286</ele><time>2026-04-06T16:21:18Z</time></trkpt><trkpt lat="44.84650223431705" lon="8.375372992146149"><ele>191.28571428571428</ele><time>2026-04-06T16:21:29Z</time></trkpt><trkpt lat="44.84651570502118" lon="8.375481812760828"><ele>191.71428571428572</ele><time>2026-04-06T16:21:37Z</time></trkpt><trkpt lat="44.84652944543412" lon="8.3755749112956"><ele>192.14285714285714</ele><time>2026-04-06T16:21:44Z</time></trkpt><trkpt lat="44.84653989522531" lon="8.37566576989711"><ele>192.57142857142858</ele><time>2026-04-06T16:21:51Z</time></trkpt><trkpt lat="44.84653803572267" lon="8.375772758114898"><ele>193.0</ele><time>2026-04-06T16:21:59Z</time></trkpt><trkpt lat="44.846554158057266" lon="8.375859099344668"><ele>193.00000000000003</ele><time>2026-04-06T16:22:05Z</time></trkpt><trkpt lat="44.84657786998144" lon="8.375949055308437"><ele>193.0</ele><time>2026-04-06T16:22:10Z</time></trkpt><trkpt lat="44.84660320112573" lon="8.37603476356187"><ele>193.0</ele><time>2026-04-06T16:22:17Z</time></trkpt><trkpt lat="44.84663241661579" lon="8.37612064598182"><ele>193.0</ele><time>2026-04-06T16:22:24Z</time></trkpt><trkpt lat="44.84667873737638" lon="8.376198305437445"><ele>193.0</ele><time>2026-04-06T16:22:32Z</time></trkpt><trkpt lat="44.84673363510797" lon="8.37625446622728"><ele>193.00000000000003</ele><time>2026-04-06T16:22:39Z</time></trkpt><trkpt lat="44.846796313434965" lon="8.376276215549195"><ele>193.0</ele><time>2026-04-06T16:22:45Z</time></trkpt><trkpt lat="44.846860178826894" lon="8.376273212019136"><ele>193.2857142857143</ele><time>2026-04-06T16:22:52Z</time></trkpt><trkpt lat="44.84693152538862" lon="8.376275230405488"><ele>193.57142857142858</ele><time>2026-04-06T16:23:00Z</time></trkpt><trkpt lat="44.84699977723152" lon="8.376275889756105"><ele>193.85714285714286</ele><time>2026-04-06T16:23:07Z</time></trkpt><trkpt lat="44.847074698158" lon="8.376271365933135"><ele>194.14285714285717</ele><time>2026-04-06T16:23:14Z</time></trkpt><trkpt lat="44.8471454294907" lon="8.376245761526924"><ele>194.42857142857142</ele><time>2026-04-06T16:23:21Z</time></trkpt><trkpt lat="44.84721213980495" lon="8.376242398371764"><ele>194.71428571428572</ele><time>2026-04-06T16:23:28Z</time></trkpt><trkpt lat="44.847276482940444" lon="8.376237727550608"><ele>195.0</ele><time>2026-04-06T16:23:34Z</time></trkpt><trkpt lat="44.847345251680565" lon="8.376230162434272"><ele>195.0</ele><time>2026-04-06T16:23:41Z</time></trkpt><trkpt lat="44.84740878056343" lon="8.376220842639754"><ele>195.0</ele><time>2026-04-06T16:23:47Z</time></trkpt><trkpt lat="44.84747366048406" lon="8.376211794580673"><ele>195.0</ele><time>2026-04-06T16:23:53Z</time></trkpt><trkpt lat="44.84754471937771" lon="8.376204501989491"><ele>195.0</ele><time>2026-04-06T16:24:00Z</time></trkpt><trkpt lat="44.847613176809496" lon="8.376208794057083"><ele>195.0</ele><time>2026-04-06T16:24:06Z</time></trkpt><trkpt lat="44.847680412034485" lon="8.376188775799418"><ele>195.0</ele><time>2026-04-06T16:24:12Z</time></trkpt><trkpt lat="44.84774492931456" lon="8.376190882903886"><ele>195.0</ele><time>2026-04-06T16:24:18Z</time></trkpt><trkpt lat="44.84780953271825" lon="8.376188525113442"><ele>195.0</ele><time>2026-04-06T16:24:24Z</time></trkpt><trkpt lat="44.847881356455666" lon="8.376178128553393"><ele>195.0</ele><time>2026-04-06T16:24:31Z</time></trkpt><trkpt lat="44.84794482111152" lon="8.376171189100944"><ele>195.0</ele><time>2026-04-06T16:24:37Z</time></trkpt><trkpt lat="44.8480117050738" lon="8.376153486135722"><ele>195.0</ele><time>2026-04-06T16:24:43Z</time></trkpt><trkpt lat="44.848076066308984" lon="8.376146260934556"><ele>195.0</ele><time>2026-04-06T16:24:49Z</time></trkpt><trkpt lat="44.84814590308924" lon="8.376135490742932"><ele>195.0</ele><time>2026-04-06T16:24:55Z</time></trkpt><trkpt lat="44.84821235281143" lon="8.376124593583713"><ele>195.0</ele><time>2026-04-06T16:25:01Z</time></trkpt><trkpt lat="44.84828132528109" lon="8.376117453520152"><ele>195.0</ele><time>2026-04-06T16:25:07Z</time></trkpt><trkpt lat="44.84834647394264" lon="8.376109203034684"><ele>195.0</ele><time>2026-04-06T16:25:13Z</time></trkpt><trkpt lat="44.84841572388632" lon="8.37609819878844"><ele>195.0</ele><time>2026-04-06T16:25:19Z</time></trkpt><trkpt lat="44.848489421324665" lon="8.376092928698405"><ele>195.0</ele><time>2026-04-06T16:25:25Z</time></trkpt><trkpt lat="44.84856063230265" lon="8.37609898218545"><ele>195.0</ele><time>2026-04-06T16:25:32Z</time></trkpt><trkpt lat="44.84862889786317" lon="8.376103411486412"><ele>195.0</ele><time>2026-04-06T16:25:38Z</time></trkpt><trkpt lat="44.84869683001506" lon="8.376109376494545"><ele>195.0</ele><time>2026-04-06T16:25:44Z</time></trkpt><trkpt lat="44.84877238911155" lon="8.376115534040926"><ele>194.57142857142856</ele><time>2026-04-06T16:25:51Z</time></trkpt><trkpt lat="44.848836196335064" lon="8.376137777007001"><ele>194.14285714285714</ele><time>2026-04-06T16:25:58Z</time></trkpt><trkpt lat="44.84890313729501" lon="8.376146283165836"><ele>193.71428571428572</ele><time>2026-04-06T16:26:04Z</time></trkpt><trkpt lat="44.848971711639884" lon="8.376148764243672"><ele>193.28571428571428</ele><time>2026-04-06T16:26:10Z</time></trkpt><trkpt lat="44.849045871218834" lon="8.3761698561478"><ele>192.85714285714286</ele><time>2026-04-06T16:26:16Z</time></trkpt><trkpt lat="44.84911388967321" lon="8.376179447131372"><ele>192.42857142857142</ele><time>2026-04-06T16:26:22Z</time></trkpt><trkpt lat="44.84918576656065" lon="8.376174395693344"><ele>192.0</ele><time>2026-04-06T16:26:28Z</time></trkpt><trkpt lat="44.849259557213756" lon="8.376176678903768"><ele>192.28571428571428</ele><time>2026-04-06T16:26:35Z</time></trkpt><trkpt lat="44.84932974818016" lon="8.376182302357716"><ele>192.57142857142856</ele><time>2026-04-06T16:26:41Z</time></trkpt><trkpt lat="44.84939355580038" lon="8.376187253625758"><ele>192.85714285714283</ele><time>2026-04-06T16:26:47Z</time></trkpt><trkpt lat="44.84946137007009" lon="8.37618331028398"><ele>193.14285714285714</ele><time>2026-04-06T16:26:54Z</time></trkpt><trkpt lat="44.84952500974934" lon="8.376199789309327"><ele>193.42857142857144</ele><time>2026-04-06T16:27:00Z</time></trkpt><trkpt lat="44.84959254672995" lon="8.376203594505743"><ele>193.7142857142857</ele><time>2026-04-06T16:27:06Z</time></trkpt><trkpt lat="44.84966200773048" lon="8.376213833614415"><ele>194.0</ele><time>2026-04-06T16:27:13Z</time></trkpt><trkpt lat="44.84972521028132" lon="8.376211073404681"><ele>194.0</ele><time>2026-04-06T16:27:19Z</time></trkpt><trkpt lat="44.84979852787948" lon="8.376207981872684"><ele>194.0</ele><time>2026-04-06T16:27:26Z</time></trkpt><trkpt lat="44.84987117853371" lon="8.37621909671259"><ele>194.0</ele><time>2026-04-06T16:27:33Z</time></trkpt><trkpt lat="44.849943087112486" lon="8.376212012794856"><ele>194.0</ele><time>2026-04-06T16:27:40Z</time></trkpt><trkpt lat="44.85001239841751" lon="8.376227365183103"><ele>194.0</ele><time>2026-04-06T16:27:47Z</time></trkpt><trkpt lat="44.85007391926749" lon="8.376246735659551"><ele>194.0</ele><time>2026-04-06T16:27:53Z</time></trkpt><trkpt lat="44.85014626191019" lon="8.37626852680025"><ele>194.0</ele><time>2026-04-06T16:28:00Z</time></trkpt><trkpt lat="44.85020889329751" lon="8.376282822767797"><ele>194.0</ele><time>2026-04-06T16:28:06Z</time></trkpt><trkpt lat="44.85028462945043" lon="8.376293770849436"><ele>194.0</ele><time>2026-04-06T16:28:13Z</time></trkpt><trkpt lat="44.85035627146673" lon="8.376313679022223"><ele>194.0</ele><time>2026-04-06T16:28:19Z</time></trkpt><trkpt lat="44.850425248012556" lon="8.376322653012421"><ele>194.0</ele><time>2026-04-06T16:28:27Z</time></trkpt><trkpt lat="44.85048791874653" lon="8.376342800416266"><ele>194.0</ele><time>2026-04-06T16:28:34Z</time></trkpt><trkpt lat="44.85055706233985" lon="8.376373366486408"><ele>194.0</ele><time>2026-04-06T16:28:41Z</time></trkpt><trkpt lat="44.85062040265599" lon="8.376391979406153"><ele>194.0</ele><time>2026-04-06T16:28:47Z</time></trkpt><trkpt lat="44.850687403927274" lon="8.376410182744944"><ele>194.0</ele><time>2026-04-06T16:28:53Z</time></trkpt><trkpt lat="44.85075203843593" lon="8.376426650189988"><ele>194.0</ele><time>2026-04-06T16:28:59Z</time></trkpt><trkpt lat="44.850813799708824" lon="8.376454161790493"><ele>194.0</ele><time>2026-04-06T16:29:07Z</time></trkpt><trkpt lat="44.85088623730453" lon="8.376462519355558"><ele>194.0</ele><time>2026-04-06T16:29:14Z</time></trkpt><trkpt lat="44.85094405826744" lon="8.37650146317069"><ele>194.0</ele><time>2026-04-06T16:29:19Z</time></trkpt><trkpt lat="44.851007822818275" lon="8.376522421609987"><ele>194.0</ele><time>2026-04-06T16:29:26Z</time></trkpt><trkpt lat="44.851074317816256" lon="8.376541094426052"><ele>194.0</ele><time>2026-04-06T16:29:33Z</time></trkpt><trkpt lat="44.85113559833649" lon="8.376570871823162"><ele>194.0</ele><time>2026-04-06T16:29:39Z</time></trkpt><trkpt lat="44.85120209059375" lon="8.376584006545874"><ele>194.0</ele><time>2026-04-06T16:29:45Z</time></trkpt><trkpt lat="44.85126321993494" lon="8.376616255841457"><ele>194.0</ele><time>2026-04-06T16:29:52Z</time></trkpt><trkpt lat="44.851330832229415" lon="8.3766334252082"><ele>194.0</ele><time>2026-04-06T16:29:58Z</time></trkpt><trkpt lat="44.85139142694628" lon="8.376666482581458"><ele>194.0</ele><time>2026-04-06T16:30:05Z</time></trkpt><trkpt lat="44.85146089791226" lon="8.376681914479347"><ele>194.0</ele><time>2026-04-06T16:30:13Z</time></trkpt><trkpt lat="44.85152847900822" lon="8.376686686197704"><ele>194.0</ele><time>2026-04-06T16:30:21Z</time></trkpt><trkpt lat="44.85159597288746" lon="8.376711951485195"><ele>194.0</ele><time>2026-04-06T16:30:27Z</time></trkpt><trkpt lat="44.851665845555246" lon="8.376740049422637"><ele>194.0</ele><time>2026-04-06T16:30:34Z</time></trkpt><trkpt lat="44.851738971751786" lon="8.376748877924214"><ele>194.0</ele><time>2026-04-06T16:30:42Z</time></trkpt><trkpt lat="44.851806468489976" lon="8.37675385366089"><ele>194.0</ele><time>2026-04-06T16:30:49Z</time></trkpt><trkpt lat="44.85186934232382" lon="8.376758888755964"><ele>194.0</ele><time>2026-04-06T16:30:57Z</time></trkpt><trkpt lat="44.85180774606827" lon="8.37673587681753"><ele>194.0</ele><time>2026-04-06T16:32:05Z</time></trkpt><trkpt lat="44.851744300334744" lon="8.376730589984893"><ele>194.0</ele><time>2026-04-06T16:32:14Z</time></trkpt><trkpt lat="44.851677026869936" lon="8.376712439002246"><ele>194.0</ele><time>2026-04-06T16:32:22Z</time></trkpt><trkpt lat="44.85161160752265" lon="8.376711304598455"><ele>194.0</ele><time>2026-04-06T16:32:27Z</time></trkpt><trkpt lat="44.85154126424655" lon="8.37669324985174"><ele>194.0</ele><time>2026-04-06T16:32:34Z</time></trkpt><trkpt lat="44.85148003833632" lon="8.37666416453867"><ele>194.0</ele><time>2026-04-06T16:32:42Z</time></trkpt><trkpt lat="44.85140908290755" lon="8.376656763002924"><ele>194.0</ele><time>2026-04-06T16:32:49Z</time></trkpt><trkpt lat="44.85134484285312" lon="8.37662779653599"><ele>194.0</ele><time>2026-04-06T16:32:55Z</time></trkpt><trkpt lat="44.85127675371456" lon="8.376589351048311"><ele>194.0</ele><time>2026-04-06T16:33:02Z</time></trkpt><trkpt lat="44.851209829758474" lon="8.376575304795452"><ele>194.0</ele><time>2026-04-06T16:33:08Z</time></trkpt><trkpt lat="44.85114283253842" lon="8.376549650789851"><ele>194.0</ele><time>2026-04-06T16:33:14Z</time></trkpt><trkpt lat="44.85107477064397" lon="8.376524032206213"><ele>194.0</ele><time>2026-04-06T16:33:20Z</time></trkpt><trkpt lat="44.85101025273726" lon="8.376512458220821"><ele>194.0</ele><time>2026-04-06T16:33:25Z</time></trkpt><trkpt lat="44.85094435133293" lon="8.376491520687903"><ele>194.0</ele><time>2026-04-06T16:33:32Z</time></trkpt><trkpt lat="44.85087933995172" lon="8.37646674695156"><ele>194.0</ele><time>2026-04-06T16:33:39Z</time></trkpt><trkpt lat="44.850813163703904" lon="8.376458591837796"><ele>194.0</ele><time>2026-04-06T16:33:45Z</time></trkpt><trkpt lat="44.85074378608216" lon="8.3764353980342"><ele>194.0</ele><time>2026-04-06T16:33:52Z</time></trkpt><trkpt lat="44.850673952867275" lon="8.376409222717573"><ele>194.0</ele><time>2026-04-06T16:33:58Z</time></trkpt><trkpt lat="44.85060345224481" lon="8.376392876858537"><ele>194.0</ele><time>2026-04-06T16:34:04Z</time></trkpt><trkpt lat="44.85053625518382" lon="8.376366448726284"><ele>194.0</ele><time>2026-04-06T16:34:11Z</time></trkpt><trkpt lat="44.85047057458389" lon="8.376340378199146"><ele>194.0</ele><time>2026-04-06T16:34:17Z</time></trkpt><trkpt lat="44.85040670155076" lon="8.376319241842568"><ele>194.0</ele><time>2026-04-06T16:34:23Z</time></trkpt><trkpt lat="44.85033962617679" lon="8.376295833241352"><ele>194.0</ele><time>2026-04-06T16:34:29Z</time></trkpt><trkpt lat="44.850275523200814" lon="8.376284886123717"><ele>194.0</ele><time>2026-04-06T16:34:36Z</time></trkpt><trkpt lat="44.850211444403165" lon="8.376278077466383"><ele>194.0</ele><time>2026-04-06T16:34:42Z</time></trkpt><trkpt lat="44.85014383568078" lon="8.376264580413752"><ele>194.0</ele><time>2026-04-06T16:34:49Z</time></trkpt><trkpt lat="44.85007943718928" lon="8.376244670220546"><ele>194.0</ele><time>2026-04-06T16:34:55Z</time></trkpt><trkpt lat="44.85000763203654" lon="8.376230982213366"><ele>194.0</ele><time>2026-04-06T16:35:02Z</time></trkpt><trkpt lat="44.84994381046678" lon="8.376220059991901"><ele>194.0</ele><time>2026-04-06T16:35:08Z</time></trkpt><trkpt lat="44.849869871339436" lon="8.376219850993197"><ele>194.0</ele><time>2026-04-06T16:35:15Z</time></trkpt><trkpt lat="44.84980452563125" lon="8.376216302667867"><ele>194.0</ele><time>2026-04-06T16:35:21Z</time></trkpt><trkpt lat="44.849741173676044" lon="8.376199956946119"><ele>194.0</ele><time>2026-04-06T16:35:27Z</time></trkpt><trkpt lat="44.84967809995295" lon="8.376196264787426"><ele>194.0</ele><time>2026-04-06T16:35:33Z</time></trkpt><trkpt lat="44.849608797241785" lon="8.37618537691319"><ele>194.0</ele><time>2026-04-06T16:35:40Z</time></trkpt><trkpt lat="44.849541731596545" lon="8.376176173740753"><ele>194.0</ele><time>2026-04-06T16:35:46Z</time></trkpt><trkpt lat="44.84947177902699" lon="8.376164094319307"><ele>194.0</ele><time>2026-04-06T16:35:52Z</time></trkpt><trkpt lat="44.84940714749048" lon="8.376169869285626"><ele>194.0</ele><time>2026-04-06T16:35:58Z</time></trkpt><trkpt lat="44.84934021329892" lon="8.376172510963782"><ele>193.7142857142857</ele><time>2026-04-06T16:36:05Z</time></trkpt><trkpt lat="44.84927403804306" lon="8.376163437964443"><ele>193.42857142857144</ele><time>2026-04-06T16:36:11Z</time></trkpt><trkpt lat="44.84920575573652" lon="8.376162117325446"><ele>193.14285714285714</ele><time>2026-04-06T16:36:17Z</time></trkpt><trkpt lat="44.84914050238452" lon="8.37615746409302"><ele>192.85714285714283</ele><time>2026-04-06T16:36:22Z</time></trkpt><trkpt lat="44.84907568103993" lon="8.376150851754652"><ele>192.57142857142856</ele><time>2026-04-06T16:36:28Z</time></trkpt><trkpt lat="44.8490030257231" lon="8.376143128234933"><ele>192.28571428571428</ele><time>2026-04-06T16:36:36Z</time></trkpt><trkpt lat="44.84893606825799" lon="8.376133049902704"><ele>192.0</ele><time>2026-04-06T16:36:42Z</time></trkpt><trkpt lat="44.84887071479767" lon="8.376127503792869"><ele>191.99999999999997</ele><time>2026-04-06T16:36:48Z</time></trkpt><trkpt lat="44.84880428025744" lon="8.376111099708366"><ele>192.0</ele><time>2026-04-06T16:36:56Z</time></trkpt><trkpt lat="44.84873912874044" lon="8.376098092891738"><ele>192.0</ele><time>2026-04-06T16:37:04Z</time></trkpt><trkpt lat="44.8486739211666" lon="8.376087040335259"><ele>192.0</ele><time>2026-04-06T16:37:11Z</time></trkpt><trkpt lat="44.848602786463054" lon="8.376068665423517"><ele>192.0</ele><time>2026-04-06T16:37:18Z</time></trkpt><trkpt lat="44.84853731329668" lon="8.3760600094608"><ele>191.99999999999997</ele><time>2026-04-06T16:37:25Z</time></trkpt><trkpt lat="44.84846405629935" lon="8.37606361474988"><ele>192.0</ele><time>2026-04-06T16:37:31Z</time></trkpt><trkpt lat="44.848399270157095" lon="8.376061812248475"><ele>192.42857142857142</ele><time>2026-04-06T16:37:36Z</time></trkpt><trkpt lat="44.84832956285763" lon="8.376075105890907"><ele>192.85714285714286</ele><time>2026-04-06T16:37:43Z</time></trkpt><trkpt lat="44.8482628945317" lon="8.376078422187792"><ele>193.28571428571428</ele><time>2026-04-06T16:37:48Z</time></trkpt><trkpt lat="44.8481992038124" lon="8.37609524908707"><ele>193.71428571428572</ele><time>2026-04-06T16:37:55Z</time></trkpt><trkpt lat="44.84813164797715" lon="8.376115696376118"><ele>194.14285714285714</ele><time>2026-04-06T16:38:01Z</time></trkpt><trkpt lat="44.848059664804296" lon="8.376129450889064"><ele>194.57142857142856</ele><time>2026-04-06T16:38:09Z</time></trkpt><trkpt lat="44.84799504843272" lon="8.37614001613757"><ele>195.0</ele><time>2026-04-06T16:38:15Z</time></trkpt><trkpt lat="44.84792432151941" lon="8.376136658307908"><ele>195.0</ele><time>2026-04-06T16:38:20Z</time></trkpt><trkpt lat="44.84785575717617" lon="8.37615068683717"><ele>195.0</ele><time>2026-04-06T16:38:27Z</time></trkpt><trkpt lat="44.84778656969129" lon="8.376158280784434"><ele>195.0</ele><time>2026-04-06T16:38:34Z</time></trkpt><trkpt lat="44.84772105394398" lon="8.376163843690763"><ele>195.0</ele><time>2026-04-06T16:38:40Z</time></trkpt><trkpt lat="44.84765325328919" lon="8.376170474307"><ele>195.0</ele><time>2026-04-06T16:38:46Z</time></trkpt><trkpt lat="44.84757971669148" lon="8.37618243965379"><ele>195.0</ele><time>2026-04-06T16:38:52Z</time></trkpt><trkpt lat="44.84751346122494" lon="8.376190806545521"><ele>195.0</ele><time>2026-04-06T16:38:58Z</time></trkpt><trkpt lat="44.84744213115915" lon="8.376190762814655"><ele>195.0</ele><time>2026-04-06T16:39:05Z</time></trkpt><trkpt lat="44.847368723907856" lon="8.37619860227327"><ele>195.0</ele><time>2026-04-06T16:39:11Z</time></trkpt><trkpt lat="44.8473057677874" lon="8.376201979600129"><ele>195.0</ele><time>2026-04-06T16:39:17Z</time></trkpt><trkpt lat="44.84723965547552" lon="8.376218804257263"><ele>195.0</ele><time>2026-04-06T16:39:23Z</time></trkpt><trkpt lat="44.847173989155976" lon="8.376228349960355"><ele>195.0</ele><time>2026-04-06T16:39:30Z</time></trkpt><trkpt lat="44.84710570601125" lon="8.376237994949133"><ele>195.0</ele><time>2026-04-06T16:39:36Z</time></trkpt><trkpt lat="44.84703795680883" lon="8.376246933935674"><ele>195.0</ele><time>2026-04-06T16:39:42Z</time></trkpt><trkpt lat="44.84697425312064" lon="8.376251775503086"><ele>195.0</ele><time>2026-04-06T16:39:48Z</time></trkpt><trkpt lat="44.84690911346651" lon="8.376258764773926"><ele>195.0</ele><time>2026-04-06T16:39:54Z</time></trkpt><trkpt lat="44.84684169658063" lon="8.37625729582119"><ele>195.0</ele><time>2026-04-06T16:40:00Z</time></trkpt><trkpt lat="44.846766691651766" lon="8.376238736029286"><ele>195.0</ele><time>2026-04-06T16:40:07Z</time></trkpt><trkpt lat="44.84670626937454" lon="8.37619114431831"><ele>195.0</ele><time>2026-04-06T16:40:13Z</time></trkpt><trkpt lat="44.84665406796891" lon="8.376125361554433"><ele>195.0</ele><time>2026-04-06T16:40:19Z</time></trkpt><trkpt lat="44.84661219719665" lon="8.376054648291658"><ele>195.0</ele><time>2026-04-06T16:40:25Z</time></trkpt><trkpt lat="44.84658359711564" lon="8.37596353957884"><ele>194.71428571428572</ele><time>2026-04-06T16:40:32Z</time></trkpt><trkpt lat="44.846571020194624" lon="8.375865971856333"><ele>194.42857142857142</ele><time>2026-04-06T16:40:39Z</time></trkpt><trkpt lat="44.84655624834162" lon="8.375764284564129"><ele>194.14285714285717</ele><time>2026-04-06T16:40:46Z</time></trkpt><trkpt lat="44.84654726679387" lon="8.375660659018623"><ele>193.85714285714286</ele><time>2026-04-06T16:40:52Z</time></trkpt><trkpt lat="44.846534200304234" lon="8.375568236294388"><ele>193.57142857142858</ele><time>2026-04-06T16:40:59Z</time></trkpt><trkpt lat="44.84653365721627" lon="8.375476896234288"><ele>193.2857142857143</ele><time>2026-04-06T16:41:04Z</time></trkpt><trkpt lat="44.84651675206432" lon="8.375384289790679"><ele>193.0</ele><time>2026-04-06T16:41:11Z</time></trkpt><trkpt lat="44.846490934849044" lon="8.375291467555254"><ele>193.00000000000003</ele><time>2026-04-06T16:41:18Z</time></trkpt><trkpt lat="44.846461887093234" lon="8.375211323382072"><ele>193.0</ele><time>2026-04-06T16:41:25Z</time></trkpt><trkpt lat="44.84645380689676" lon="8.375102424787617"><ele>193.0</ele><time>2026-04-06T16:41:31Z</time></trkpt><trkpt lat="44.846441313543174" lon="8.375013052475198"><ele>193.0</ele><time>2026-04-06T16:41:36Z</time></trkpt><trkpt lat="44.84643948640642" lon="8.374919239668426"><ele>193.0</ele><time>2026-04-06T16:41:42Z</time></trkpt><trkpt lat="44.84643186305417" lon="8.37482041223599"><ele>193.00000000000003</ele><time>2026-04-06T16:41:51Z</time></trkpt><trkpt lat="44.8464190547911" lon="8.374726696525235"><ele>193.0</ele><time>2026-04-06T16:41:59Z</time></trkpt><trkpt lat="44.84637083115975" lon="8.374526942746739"><ele>192.57142857142858</ele><time>2026-04-06T16:42:41Z</time></trkpt><trkpt lat="44.846343400996396" lon="8.374441550437513"><ele>192.14285714285714</ele><time>2026-04-06T16:42:46Z</time></trkpt><trkpt lat="44.846286569944695" lon="8.374386886418321"><ele>191.71428571428572</ele><time>2026-04-06T16:42:53Z</time></trkpt><trkpt lat="44.84623269489919" lon="8.374331672555215"><ele>191.28571428571428</ele><time>2026-04-06T16:43:01Z</time></trkpt><trkpt lat="44.84617343808594" lon="8.374273822712453"><ele>190.85714285714286</ele><time>2026-04-06T16:43:09Z</time></trkpt><trkpt lat="44.84610576347177" lon="8.374222007839839"><ele>190.42857142857144</ele><time>2026-04-06T16:43:17Z</time></trkpt><trkpt lat="44.8460584106765" lon="8.374148147899803"><ele>190.0</ele><time>2026-04-06T16:43:24Z</time></trkpt><trkpt lat="44.84602347020176" lon="8.37406655985775"><ele>190.0</ele><time>2026-04-06T16:43:30Z</time></trkpt><trkpt lat="44.84598855862122" lon="8.373978673847015"><ele>190.0</ele><time>2026-04-06T16:43:36Z</time></trkpt><trkpt lat="44.845955769603144" lon="8.373897088985101"><ele>190.0</ele><time>2026-04-06T16:43:42Z</time></trkpt><trkpt lat="44.84592888059771" lon="8.373812819228904"><ele>190.0</ele><time>2026-04-06T16:43:48Z</time></trkpt><trkpt lat="44.84589701377589" lon="8.373728533262511"><ele>190.0</ele><time>2026-04-06T16:43:54Z</time></trkpt><trkpt lat="44.845871216812846" lon="8.373630149098044"><ele>190.0</ele><time>2026-04-06T16:44:00Z</time></trkpt><trkpt lat="44.84583774052591" lon="8.373548010902358"><ele>190.0</ele><time>2026-04-06T16:44:06Z</time></trkpt><trkpt lat="44.84581910217699" lon="8.373455329632776"><ele>190.71428571428572</ele><time>2026-04-06T16:44:13Z</time></trkpt><trkpt lat="44.84579926993752" lon="8.373363558895885"><ele>191.42857142857144</ele><time>2026-04-06T16:44:19.999Z</time></trkpt><trkpt lat="44.84577263973752" lon="8.373282943742506"><ele>192.14285714285714</ele><time>2026-04-06T16:44:25Z</time></trkpt><trkpt lat="44.845747504344516" lon="8.373183499153713"><ele>192.85714285714286</ele><time>2026-04-06T16:44:32Z</time></trkpt><trkpt lat="44.84572053783524" lon="8.373100042381095"><ele>193.57142857142856</ele><time>2026-04-06T16:44:37Z</time></trkpt><trkpt lat="44.84570833542777" lon="8.373003494777546"><ele>194.28571428571428</ele><time>2026-04-06T16:44:43Z</time></trkpt><trkpt lat="44.845697141901134" lon="8.372902927788532"><ele>195.0</ele><time>2026-04-06T16:44:49Z</time></trkpt><trkpt lat="44.84568026270819" lon="8.372808877444356"><ele>195.0</ele><time>2026-04-06T16:44:55Z</time></trkpt><trkpt lat="44.84569008242551" lon="8.372711528825485"><ele>195.0</ele><time>2026-04-06T16:45:01Z</time></trkpt><trkpt lat="44.84568767689849" lon="8.372614246480463"><ele>195.0</ele><time>2026-04-06T16:45:08Z</time></trkpt><trkpt lat="44.84567831523426" lon="8.372508457475028"><ele>195.0</ele><time>2026-04-06T16:45:14Z</time></trkpt><trkpt lat="44.84567360745263" lon="8.372419218271089"><ele>195.0</ele><time>2026-04-06T16:45:20Z</time></trkpt><trkpt lat="44.8456643307517" lon="8.372310844515818"><ele>195.0</ele><time>2026-04-06T16:45:27Z</time></trkpt><trkpt lat="44.845642671379586" lon="8.372218680465725"><ele>195.0</ele><time>2026-04-06T16:45:33Z</time></trkpt><trkpt lat="44.84562353714111" lon="8.372131675915943"><ele>195.71428571428572</ele><time>2026-04-06T16:45:39Z</time></trkpt><trkpt lat="44.845608232462105" lon="8.372036833210172"><ele>196.42857142857142</ele><time>2026-04-06T16:45:46Z</time></trkpt><trkpt lat="44.84558249041958" lon="8.371946555523468"><ele>197.14285714285717</ele><time>2026-04-06T16:45:52Z</time></trkpt><trkpt lat="44.8455698626174" lon="8.371849702714679"><ele>197.85714285714286</ele><time>2026-04-06T16:45:59Z</time></trkpt><trkpt lat="44.84556077808676" lon="8.371760220112682"><ele>198.57142857142858</ele><time>2026-04-06T16:46:08Z</time></trkpt><trkpt lat="44.84554438488381" lon="8.371658151966386"><ele>199.2857142857143</ele><time>2026-04-06T16:46:15Z</time></trkpt><trkpt lat="44.84553085734643" lon="8.371562048665627"><ele>200.0</ele><time>2026-04-06T16:46:20.999Z</time></trkpt><trkpt lat="44.845519613743804" lon="8.371465884008838"><ele>200.00000000000003</ele><time>2026-04-06T16:46:26.999Z</time></trkpt><trkpt lat="44.84552609635444" lon="8.371376813290226"><ele>200.0</ele><time>2026-04-06T16:46:33Z</time></trkpt><trkpt lat="44.8455233402132" lon="8.371276600625539"><ele>200.0</ele><time>2026-04-06T16:46:39Z</time></trkpt><trkpt lat="44.84552660290949" lon="8.371180954730036"><ele>200.0</ele><time>2026-04-06T16:46:45Z</time></trkpt><trkpt lat="44.8455233054718" lon="8.37109134513236"><ele>200.0</ele><time>2026-04-06T16:46:51Z</time></trkpt><trkpt lat="44.84554436469395" lon="8.370991555306597"><ele>200.00000000000003</ele><time>2026-04-06T16:47:00Z</time></trkpt><trkpt lat="44.845545832144126" lon="8.370886698602279"><ele>200.0</ele><time>2026-04-06T16:47:07Z</time></trkpt><trkpt lat="44.84556985171483" lon="8.370794385998062"><ele>200.57142857142858</ele><time>2026-04-06T16:47:13Z</time></trkpt><trkpt lat="44.84557511392727" lon="8.370699029747751"><ele>201.14285714285714</ele><time>2026-04-06T16:47:20Z</time></trkpt><trkpt lat="44.845583870817784" lon="8.370608030875008"><ele>201.71428571428572</ele><time>2026-04-06T16:47:28Z</time></trkpt><trkpt lat="44.84558486451003" lon="8.37050939191485"><ele>202.28571428571428</ele><time>2026-04-06T16:47:38Z</time></trkpt><trkpt lat="44.8455929513509" lon="8.37041405075822"><ele>202.85714285714286</ele><time>2026-04-06T16:47:43Z</time></trkpt><trkpt lat="44.84560353330937" lon="8.370317594189553"><ele>203.42857142857144</ele><time>2026-04-06T16:47:49Z</time></trkpt><trkpt lat="44.84559473163702" lon="8.370221743122423"><ele>204.0</ele><time>2026-04-06T16:47:55Z</time></trkpt><trkpt lat="44.84556722770318" lon="8.370141455476128"><ele>204.0</ele><time>2026-04-06T16:48:01Z</time></trkpt><trkpt lat="44.84553630425013" lon="8.370047193137077"><ele>204.0</ele><time>2026-04-06T16:48:07Z</time></trkpt><trkpt lat="44.84551224259409" lon="8.369956159325442"><ele>204.0</ele><time>2026-04-06T16:48:14Z</time></trkpt><trkpt lat="44.84548113762688" lon="8.369873339358024"><ele>204.0</ele><time>2026-04-06T16:48:19.999Z</time></trkpt><trkpt lat="44.84543697407855" lon="8.36979968472352"><ele>204.0</ele><time>2026-04-06T16:48:26.999Z</time></trkpt><trkpt lat="44.84539846887044" lon="8.369713425944628"><ele>204.0</ele><time>2026-04-06T16:48:41Z</time></trkpt><trkpt lat="44.84535169562299" lon="8.369647982700831"><ele>204.0</ele><time>2026-04-06T16:48:54Z</time></trkpt><trkpt lat="44.84531062709365" lon="8.369568306563847"><ele>203.71428571428572</ele><time>2026-04-06T16:49:02Z</time></trkpt><trkpt lat="44.84526747735164" lon="8.369500415545728"><ele>203.42857142857144</ele><time>2026-04-06T16:49:08Z</time></trkpt><trkpt lat="44.845220629559556" lon="8.369430967710386"><ele>203.14285714285714</ele><time>2026-04-06T16:49:14Z</time></trkpt><trkpt lat="44.845165477341" lon="8.369367630793171"><ele>202.85714285714286</ele><time>2026-04-06T16:49:20Z</time></trkpt><trkpt lat="44.845120614864214" lon="8.369305023543875"><ele>202.57142857142856</ele><time>2026-04-06T16:49:26Z</time></trkpt><trkpt lat="44.84505759237399" lon="8.369241415279896"><ele>202.28571428571428</ele><time>2026-04-06T16:49:32Z</time></trkpt><trkpt lat="44.84499383650958" lon="8.369178707245753"><ele>202.0</ele><time>2026-04-06T16:49:38Z</time></trkpt><trkpt lat="44.84495134290883" lon="8.369103100350506"><ele>202.0</ele><time>2026-04-06T16:49:44Z</time></trkpt><trkpt lat="44.84489124941419" lon="8.36905301917113"><ele>202.0</ele><time>2026-04-06T16:49:51Z</time></trkpt><trkpt lat="44.844831964780155" lon="8.368999783350326"><ele>202.0</ele><time>2026-04-06T16:49:57Z</time></trkpt><trkpt lat="44.844770969279864" lon="8.36895982112735"><ele>202.0</ele><time>2026-04-06T16:50:03Z</time></trkpt><trkpt lat="44.84472151574594" lon="8.368897576869397"><ele>202.0</ele><time>2026-04-06T16:50:09Z</time></trkpt><trkpt lat="44.844664725437404" lon="8.368837605750494"><ele>202.0</ele><time>2026-04-06T16:50:14.999Z</time></trkpt><trkpt lat="44.844619139897254" lon="8.368776368168955"><ele>202.0</ele><time>2026-04-06T16:50:21.999Z</time></trkpt><trkpt lat="44.84456802545312" lon="8.368719613086093"><ele>201.85714285714286</ele><time>2026-04-06T16:50:27.999Z</time></trkpt><trkpt lat="44.844499725288145" lon="8.368663378875649"><ele>201.71428571428572</ele><time>2026-04-06T16:50:33.999Z</time></trkpt><trkpt lat="44.844451583258035" lon="8.368601664178346"><ele>201.57142857142856</ele><time>2026-04-06T16:50:41Z</time></trkpt><trkpt lat="44.84439819749203" lon="8.368539777104242"><ele>201.42857142857144</ele><time>2026-04-06T16:50:48Z</time></trkpt><trkpt lat="44.8443461210185" lon="8.368486115335413"><ele>201.2857142857143</ele><time>2026-04-06T16:50:53Z</time></trkpt><trkpt lat="44.84429244685357" lon="8.368421108762696"><ele>201.14285714285714</ele><time>2026-04-06T16:51:00Z</time></trkpt><trkpt lat="44.84423579375279" lon="8.368357677718103"><ele>201.0</ele><time>2026-04-06T16:51:07Z</time></trkpt><trkpt lat="44.84418102702608" lon="8.368291156611393"><ele>201.0</ele><time>2026-04-06T16:51:13Z</time></trkpt><trkpt lat="44.84412617710333" lon="8.368235627548275"><ele>201.0</ele><time>2026-04-06T16:51:19Z</time></trkpt><trkpt lat="44.8440791427275" lon="8.368172234682744"><ele>201.0</ele><time>2026-04-06T16:51:26Z</time></trkpt><trkpt lat="44.84402913546931" lon="8.368112379212436"><ele>201.0</ele><time>2026-04-06T16:51:34Z</time></trkpt><trkpt lat="44.843975852104734" lon="8.368051333571131"><ele>201.0</ele><time>2026-04-06T16:51:42Z</time></trkpt><trkpt lat="44.84392447363686" lon="8.367994696549767"><ele>201.0</ele><time>2026-04-06T16:51:48Z</time></trkpt><trkpt lat="44.84386350821838" lon="8.367939721412457"><ele>201.0</ele><time>2026-04-06T16:51:56Z</time></trkpt><trkpt lat="44.84380479360921" lon="8.367873570235204"><ele>200.57142857142856</ele><time>2026-04-06T16:52:03Z</time></trkpt><trkpt lat="44.84375112794523" lon="8.367799288316771"><ele>200.14285714285717</ele><time>2026-04-06T16:52:10Z</time></trkpt><trkpt lat="44.84369561362521" lon="8.3677524113687"><ele>199.71428571428572</ele><time>2026-04-06T16:52:16Z</time></trkpt><trkpt lat="44.84364653877143" lon="8.367689849812269"><ele>199.28571428571428</ele><time>2026-04-06T16:52:21.999Z</time></trkpt><trkpt lat="44.84359917458295" lon="8.367630429018629"><ele>198.85714285714283</ele><time>2026-04-06T16:52:27.999Z</time></trkpt><trkpt lat="44.843579122682" lon="8.367541146725252"><ele>198.42857142857144</ele><time>2026-04-06T16:52:35.999Z</time></trkpt><trkpt lat="44.84353099396806" lon="8.367470042967339"><ele>198.0</ele><time>2026-04-06T16:52:41.999Z</time></trkpt><trkpt lat="44.84350112111648" lon="8.36738570417164"><ele>198.0</ele><time>2026-04-06T16:52:49Z</time></trkpt><trkpt lat="44.843476238440985" lon="8.367296337693215"><ele>198.0</ele><time>2026-04-06T16:52:55Z</time></trkpt><trkpt lat="44.84345262294601" lon="8.36719662606634"><ele>204.0</ele><time>2026-04-06T16:53:02Z</time></trkpt><trkpt lat="44.84344588494884" lon="8.367097049969297"><ele>204.0</ele><time>2026-04-06T16:53:10Z</time></trkpt><trkpt lat="44.84343186251568" lon="8.367004353313435"><ele>204.0</ele><time>2026-04-06T16:53:19Z</time></trkpt><trkpt lat="44.84349366744743" lon="8.36703008954049"><ele>197.0</ele><time>2026-04-06T16:53:31Z</time></trkpt><trkpt lat="44.84356095014408" lon="8.367020120003971"><ele>197.0</ele><time>2026-04-06T16:55:45Z</time></trkpt></trkseg></trk></gpx>